Yonkers, NY (10710)

1:39 PM EST on January 26, 2015 (GMT -0500)
Sarah Lawrence College | Change Station
CLOSE
Current Station
Personal Weather Station
Location: Bronxville, NY
Elevation: 207 ft
Nearby Weather Stations

Elev 207 ft 40.93 °N, 73.84 °W | Updated 42 seconds ago

Overcast
Overcast
23.9 °F
Feels Like 24 °F
N
2.0
Wind Variable Wind from NW
Gusts 8.0 mph

Today
High -- | Low -- °F
--% Chance of Precip.
Yesterday
High -- | Low -- °F
Precip. -- in
7:11 AM 5:04 PM
Waxing Crescent, 45% visible
Pressure 29.92 in
Visibility 4.0 miles
Clouds Mostly Cloudy 1600 ft
Overcast 3200 ft
Windchill 24 °F
Dew Point 18 °F
Humidity 79%
Rainfall 0.00 in
Snow Depth Not available.
UV 0.0 out of 12
Pollen .10 out of 12
Air Quality Not available.
Flu Activity Not available.
METAR KHPN 261756Z 05009G19KT 4SM -SN BR BKN016 OVC032 M06/M10 A2988 RMK AO2 SLP131 P0000 60000 T10611100 10067 21072 58042

More Conditions Fewer Conditions

Pressure 29.92 in
Visibility 4.0 miles
Clouds Mostly Cloudy 1600 ft
Overcast 3200 ft
Windchill 24 °F
Dew Point 18 °F
Humidity 79%
Rainfall 0.00 in
Snow Depth Not available.
UV 0.0 out of 12
Pollen .10 out of 12
Air Quality Not available.
Flu Activity Not available.
METAR KHPN 261756Z 05009G19KT 4SM -SN BR BKN016 OVC032 M06/M10 A2988 RMK AO2 SLP131 P0000 60000 T10611100 10067 21072 58042

More Conditions Fewer Conditions

10-Day Weather Forecast

Almanac

Astronomy

Jan. 26, 2015 Rise Set
Actual Time
Civil Twilight
Nautical Twilight
Astronomical Twilight
Moon
Length of Visible Light
Length of Day
Tomorrow will be .
, % of the Moon is Illuminated

Today's Extremes

State Highs State Lows

Community

WunderPhotos

Upload Photos

1,790,309 photos uploaded!

WunderBlogs® & News

Nearby

Air Quality

  Air Quality AQ Index Pollutant
Not available.

Snow Depth

Station Depth Elevation

Earthquake Activity

City Distance Mag. Time & Date
Minimum magnitude displayed is 2.5.

Coastal Water Temperatures

Place Temperature

Nearby Weather Stations